Time;durP1;ratioP1;P1;durP2;ratioP2;P2;SDS_P1;SDS_P2;PMS_P1;PMS_P2;Temp;Humidity;BMP_temperature;BMP_pressure;BME280_temperature;BME280_humidity;BME280_pressure;Samples;Min_cycle;Max_cycle;Signal;HPM_P1;HPM_P2
2021/04/01 00:00:44;;;;;;;15.40;8.05;;;11.30;99.90;;;12.43;64.38;100884.75;5003304;28;20025;-89
2021/04/01 00:03:12;;;;;;;14.75;7.78;;;11.20;99.90;;;12.43;64.36;100890.38;5020248;28;20030;-88
2021/04/01 00:05:42;;;;;;;18.08;8.32;;;11.10;99.90;;;12.43;64.67;100885.56;5020089;28;20017;-87
2021/04/01 00:08:10;;;;;;;13.32;7.18;;;11.20;99.90;;;12.42;64.35;100878.38;5011116;28;20026;-86
2021/04/01 00:10:43;;;;;;;15.43;8.10;;;11.10;99.90;;;12.43;64.28;100884.75;5000480;28;20092;-87
2021/04/01 00:13:10;;;;;;;15.68;7.70;;;11.10;99.90;;;12.44;64.17;100892.00;5000195;28;20030;-89
2021/04/01 00:15:41;;;;;;;15.68;7.90;;;11.10;99.90;;;12.37;64.46;100884.25;5001299;28;20146;-88
2021/04/01 00:18:15;;;;;;;15.55;7.93;;;11.10;99.90;;;12.32;65.08;100883.72;5039691;28;20071;-87
2021/04/01 00:20:41;;;;;;;14.52;8.23;;;11.00;99.90;;;12.26;65.50;100876.78;5035212;28;20053;-87
2021/04/01 00:23:08;;;;;;;16.55;8.45;;;11.00;99.90;;;12.27;65.03;100875.56;5036067;28;20056;-87
2021/04/01 00:25:41;;;;;;;16.05;8.27;;;11.00;99.90;;;12.26;65.21;100868.38;5053014;28;20032;-88
2021/04/01 00:28:11;;;;;;;21.52;9.15;;;11.00;99.90;;;12.24;65.55;100871.53;5035034;28;20562;-87
2021/04/01 00:30:38;;;;;;;18.40;8.40;;;10.90;99.90;;;12.25;65.90;100872.34;5027138;28;20029;-87
2021/04/01 00:33:04;;;;;;;16.30;8.50;;;10.90;99.90;;;12.31;65.50;100865.28;5021453;28;20032;-87
2021/04/01 00:35:33;;;;;;;15.90;8.95;;;11.00;99.90;;;12.38;65.11;100879.47;5021211;28;20030;-86
2021/04/01 00:38:00;;;;;;;15.65;8.32;;;11.10;99.90;;;12.45;64.02;100872.03;5021255;28;20025;-87
2021/04/01 00:40:27;;;;;;;15.95;8.40;;;11.10;99.90;;;12.51;63.95;100875.34;5021391;28;20056;-83
2021/04/01 00:42:54;;;;;;;12.30;8.45;;;11.20;99.90;;;12.53;63.99;100873.81;5038894;28;20109;-84
2021/04/01 00:45:21;;;;;;;16.50;9.15;;;11.20;99.90;;;12.53;64.26;100865.41;5039007;28;20021;-87
2021/04/01 00:47:53;;;;;;;13.95;8.50;;;11.20;99.90;;;12.58;64.35;100873.53;5039077;28;20040;-86
2021/04/01 00:50:30;;;;;;;18.55;9.07;;;11.20;99.90;;;12.56;64.13;100869.47;5039165;28;20095;-88
2021/04/01 00:52:58;;;;;;;16.40;8.63;;;11.20;99.90;;;12.56;63.93;100875.06;4982162;28;20034;-86
2021/04/01 00:55:28;;;;;;;16.48;8.70;;;11.20;99.90;;;12.61;64.05;100869.19;4982108;28;20482;-86
2021/04/01 00:58:02;;;;;;;14.02;9.05;;;11.30;99.90;;;12.58;63.92;100867.13;5005328;28;20033;-85
2021/04/01 01:00:33;;;;;;;22.98;9.85;;;11.20;99.90;;;12.54;63.61;100869.84;5007780;28;20029;-86
2021/04/01 01:03:01;;;;;;;18.17;9.40;;;11.30;99.90;;;12.53;63.75;100867.38;5020948;28;20032;-87
2021/04/01 01:05:35;;;;;;;15.80;8.73;;;11.20;99.90;;;12.45;63.81;100849.63;5013554;28;20096;-87
2021/04/01 01:08:04;;;;;;;14.95;7.97;;;11.20;99.90;;;12.41;64.16;100853.50;5008573;28;20048;-87
2021/04/01 01:10:32;;;;;;;15.02;8.93;;;11.10;99.90;;;12.40;64.21;100860.28;5020994;28;20305;-89
2021/04/01 01:13:02;;;;;;;15.55;8.70;;;11.10;99.90;;;12.36;64.45;100862.22;5021020;28;20489;-84
2021/04/01 01:15:30;;;;;;;19.25;9.05;;;11.10;99.90;;;12.33;64.60;100862.94;5038943;28;20033;-85
2021/04/01 01:17:56;;;;;;;20.20;9.63;;;11.10;99.90;;;12.31;64.54;100866.09;5008865;28;20053;-86
2021/04/01 01:20:27;;;;;;;17.98;9.40;;;11.00;99.90;;;12.30;65.02;100850.47;5002258;28;20037;-86
2021/04/01 01:22:55;;;;;;;14.80;8.95;;;11.00;99.90;;;12.33;64.82;100857.34;5002282;28;20030;-86
2021/04/01 01:25:22;;;;;;;16.55;9.77;;;11.10;99.90;;;12.31;64.92;100845.66;5002328;28;20026;-85
2021/04/01 01:27:49;;;;;;;17.25;9.30;;;11.00;99.90;;;12.31;64.60;100846.50;5001110;28;20479;-84
2021/04/01 01:30:21;;;;;;;19.90;10.35;;;11.00;99.90;;;12.37;64.46;100844.22;4998738;28;20198;-85
2021/04/01 01:32:56;;;;;;;18.02;9.07;;;11.10;99.90;;;12.44;64.04;100855.59;5002954;28;20113;-86
2021/04/01 01:35:31;;;;;;;17.47;9.27;;;11.10;99.90;;;12.43;63.90;100851.16;5030073;28;20148;-82
2021/04/01 01:38:08;;;;;;;17.50;10.07;;;11.10;99.90;;;12.41;63.92;100842.31;5001475;28;20033;-87
2021/04/01 01:40:38;;;;;;;15.75;8.73;;;11.10;99.90;;;12.44;64.15;100850.78;5000834;28;20252;-85
2021/04/01 01:43:13;;;;;;;14.80;9.43;;;11.10;99.90;;;12.44;64.04;100850.78;5017811;28;20041;-87
2021/04/01 01:45:42;;;;;;;18.80;9.35;;;11.10;99.90;;;12.46;64.31;100851.22;5001454;28;20026;-87
2021/04/01 01:48:09;;;;;;;18.35;9.50;;;11.10;99.90;;;12.44;64.44;100855.59;5012569;28;20041;-86
2021/04/01 01:50:39;;;;;;;15.45;9.13;;;11.10;99.90;;;12.41;64.18;100850.72;5007376;28;20104;-86
2021/04/01 01:53:08;;;;;;;13.90;7.90;;;11.00;99.90;;;12.38;64.75;100852.25;5023448;28;20018;-86
2021/04/01 01:55:36;;;;;;;15.85;8.10;;;11.00;99.90;;;12.30;65.08;100856.06;5000048;28;20026;-85
2021/04/01 01:58:03;;;;;;;13.23;7.43;;;10.90;99.90;;;12.17;65.71;100854.53;4999734;28;20041;-85
2021/04/01 02:00:40;;;;;;;15.85;9.35;;;10.80;99.90;;;11.97;66.35;100848.09;4999577;28;20034;-86
2021/04/01 02:03:09;;;;;;;15.90;8.80;;;10.70;99.90;;;11.88;66.71;100855.06;5019642;28;20033;-84
2021/04/01 02:05:38;;;;;;;15.50;9.18;;;10.60;99.90;;;11.80;67.22;100850.44;4998812;28;20029;-86
2021/04/01 02:08:07;;;;;;;14.25;8.05;;;10.60;99.90;;;11.82;67.02;100839.69;5007081;28;20178;-86
2021/04/01 02:10:52;;;;;;;14.80;8.35;;;10.50;99.90;;;11.80;66.64;100840.06;5033438;28;20033;-86
2021/04/01 02:13:23;;;;;;;16.35;8.57;;;10.50;99.90;;;11.80;66.76;100842.88;5024555;28;20424;-86
2021/04/01 02:15:54;;;;;;;19.00;9.70;;;10.50;99.90;;;11.83;66.91;100842.13;5002870;28;20048;-84
2021/04/01 02:18:29;;;;;;;13.73;8.50;;;10.50;99.90;;;11.83;67.30;100844.94;5008066;28;20030;-86
2021/04/01 02:21:01;;;;;;;15.73;9.32;;;10.50;99.90;;;11.81;67.22;100843.69;5000175;28;20030;-89
2021/04/01 02:23:31;;;;;;;14.20;8.82;;;10.50;99.90;;;11.81;67.42;100838.09;5007081;28;20521;-88
2021/04/01 02:26:00;;;;;;;16.10;8.52;;;10.50;99.90;;;11.85;67.22;100836.16;5010285;28;20120;-88
2021/04/01 02:28:30;;;;;;;16.42;9.70;;;10.50;99.90;;;11.86;67.75;100835.81;5009959;28;20034;-87
2021/04/01 02:31:06;;;;;;;15.80;9.05;;;10.50;99.90;;;11.88;67.71;100827.84;5010052;28;20105;-86
2021/04/01 02:33:37;;;;;;;17.92;9.70;;;10.50;99.90;;;11.90;67.56;100833.09;5010439;28;20026;-87
2021/04/01 02:36:06;;;;;;;17.40;9.75;;;10.60;99.90;;;11.94;67.82;100828.41;5009690;28;20121;-86
2021/04/01 02:38:33;;;;;;;19.67;10.52;;;10.60;99.90;;;11.99;67.22;100825.31;5025832;28;20026;-86
2021/04/01 02:41:03;;;;;;;20.42;10.45;;;10.60;99.90;;;12.03;67.00;100827.03;5012106;28;20045;-87
2021/04/01 02:43:32;;;;;;;20.48;11.18;;;10.60;99.90;;;12.08;66.93;100820.34;5015001;28;20057;-86
2021/04/01 02:46:05;;;;;;;19.95;11.13;;;10.70;99.90;;;12.12;66.80;100826.84;5040605;28;20029;-87
2021/04/01 02:48:32;;;;;;;21.05;10.50;;;10.70;99.90;;;12.14;66.12;100828.09;5017385;28;20112;-86
2021/04/01 02:50:58;;;;;;;22.23;11.43;;;10.80;99.90;;;12.14;66.54;100827.28;5028106;28;20404;-87
2021/04/01 02:53:25;;;;;;;18.25;11.57;;;10.80;99.90;;;12.15;66.40;100824.13;5027815;28;20576;-86
2021/04/01 02:55:51;;;;;;;22.25;10.88;;;10.80;99.90;;;12.22;65.85;100825.47;5022856;28;20489;-87
2021/04/01 02:58:17;;;;;;;21.38;10.50;;;10.90;99.90;;;12.22;65.67;100823.47;5012198;28;20024;-87
2021/04/01 03:00:44;;;;;;;16.85;10.57;;;10.80;99.90;;;12.22;65.87;100828.25;5011561;28;20040;-86
2021/04/01 03:03:27;;;;;;;19.65;10.57;;;10.80;99.90;;;12.19;66.15;100829.00;5013339;28;20037;-87
2021/04/01 03:05:56;;;;;;;17.48;9.88;;;10.80;99.90;;;12.14;65.98;100830.91;5009307;28;20173;-89
2021/04/01 03:08:23;;;;;;;19.90;11.05;;;10.80;99.90;;;12.13;66.00;100825.66;5008173;28;20026;-86
2021/04/01 03:10:50;;;;;;;17.15;9.85;;;10.80;99.90;;;12.08;66.35;100825.94;5001783;28;20039;-85
2021/04/01 03:13:16;;;;;;;20.10;11.20;;;10.70;99.90;;;12.02;66.27;100819.00;5029857;28;20037;-86
2021/04/01 03:15:43;;;;;;;24.88;10.88;;;10.70;99.90;;;11.98;66.94;100818.91;5007164;28;20040;-85
2021/04/01 03:18:08;;;;;;;18.73;11.55;;;10.70;99.90;;;11.97;67.08;100824.88;5005521;28;20050;-85
2021/04/01 03:20:34;;;;;;;21.70;11.90;;;10.60;99.90;;;11.99;67.11;100825.31;5014591;28;20034;-85
2021/04/01 03:23:00;;;;;;;20.63;11.63;;;10.70;99.90;;;12.06;66.73;100834.72;5007257;28;20506;-83
2021/04/01 03:25:26;;;;;;;19.60;10.52;;;10.70;99.90;;;12.10;66.49;100823.59;5024988;28;20132;-87
2021/04/01 03:27:52;;;;;;;20.92;10.50;;;10.70;99.90;;;12.12;66.81;100822.06;5004639;28;20030;-85
2021/04/01 03:30:19;;;;;;;22.58;11.13;;;10.70;99.90;;;12.15;66.34;100826.09;5002771;28;20551;-88
2021/04/01 03:32:48;;;;;;;20.15;11.00;;;10.80;99.90;;;12.18;66.22;100830.16;5016194;28;20033;-85
2021/04/01 03:35:22;;;;;;;22.05;11.95;;;10.80;99.90;;;12.22;65.90;100822.66;4997720;28;20117;-87
2021/04/01 03:37:50;;;;;;;21.80;11.98;;;10.90;99.90;;;12.25;66.12;100821.94;4998273;28;20030;-84
2021/04/01 03:40:16;;;;;;;20.92;11.52;;;10.80;99.90;;;12.31;65.38;100823.25;5002987;28;20032;-85
2021/04/01 03:42:43;;;;;;;21.90;12.23;;;10.90;99.90;;;12.36;65.52;100812.59;5001622;28;20064;-84
2021/04/01 03:45:13;;;;;;;21.10;11.55;;;10.90;99.90;;;12.39;65.43;100811.06;4996315;28;20029;-84
2021/04/01 03:47:41;;;;;;;21.83;12.02;;;11.00;99.90;;;12.43;65.23;100811.94;4996809;28;20125;-86
2021/04/01 03:50:12;;;;;;;27.48;14.32;;;11.00;99.90;;;12.56;64.93;100805.00;4996375;28;20513;-84
2021/04/01 03:52:40;;;;;;;25.63;13.35;;;11.10;99.90;;;12.61;65.43;100796.34;5031978;28;20046;-83
2021/04/01 03:57:40;;;;;;;21.70;11.82;;;11.20;99.90;;;12.61;65.12;100813.97;5019486;28;20057;-86
2021/04/01 04:00:14;;;;;;;25.77;12.73;;;11.20;99.90;;;12.57;65.39;100821.47;5018271;28;20029;-85
2021/04/01 04:02:56;;;;;;;29.27;13.35;;;11.20;99.90;;;12.53;65.54;100819.75;5006644;28;20041;-86
2021/04/01 04:10:30;;;;;;;25.83;14.20;;;11.10;99.90;;;12.53;64.99;100833.75;5039973;28;20029;-85
2021/04/01 04:13:12;;;;;;;27.58;14.77;;;11.10;99.90;;;12.59;64.66;100837.91;5038631;28;20025;-85
2021/04/01 04:15:38;;;;;;;28.00;13.30;;;11.20;99.90;;;12.66;64.43;100844.47;5021160;28;20531;-87
2021/04/01 04:18:05;;;;;;;25.80;14.27;;;11.20;99.90;;;12.67;64.14;100837.72;5020818;28;20030;-86
2021/04/01 04:20:32;;;;;;;24.33;13.13;;;11.20;99.90;;;12.66;64.25;100846.47;5021960;28;20025;-86
2021/04/01 04:22:58;;;;;;;21.88;11.60;;;11.20;99.90;;;12.62;64.47;100852.00;5022897;28;20091;-89
2021/04/01 04:25:26;;;;;;;23.15;12.73;;;11.20;99.90;;;12.58;64.55;100853.94;5023392;28;20396;-86
2021/04/01 04:30:19;;;;;;;21.42;12.27;;;11.10;99.90;;;12.55;64.83;100851.03;5042138;28;20037;-87
2021/04/01 04:32:46;;;;;;;20.50;12.43;;;11.10;99.90;;;12.49;64.57;100856.09;5023631;28;20122;-88
2021/04/01 04:35:12;;;;;;;23.67;12.98;;;11.10;99.90;;;12.44;64.99;100849.97;5042508;28;20029;-88
2021/04/01 04:37:39;;;;;;;25.45;12.57;;;11.00;99.90;;;12.32;65.97;100838.91;5042542;28;20030;-88
2021/04/01 04:40:09;;;;;;;21.48;12.43;;;11.00;99.90;;;12.19;66.47;100837.41;5024007;28;20036;-87
2021/04/01 04:42:36;;;;;;;25.48;13.70;;;10.80;99.90;;;12.17;66.89;100839.75;5046061;28;20022;-85
2021/04/01 04:45:08;;;;;;;24.45;14.25;;;10.80;99.90;;;12.20;66.55;100841.84;5050468;28;20045;-87
2021/04/01 04:47:35;;;;;;;25.05;13.98;;;10.80;99.90;;;12.29;66.62;100843.25;5037957;28;20039;-89
2021/04/01 04:50:06;;;;;;;26.80;13.93;;;10.80;99.90;;;12.39;66.74;100844.69;5037659;28;20040;-87
2021/04/01 04:52:35;;;;;;;25.48;12.48;;;11.00;99.90;;;12.42;66.82;100850.34;5037989;28;20022;-87
2021/04/01 04:55:03;;;;;;;24.33;12.27;;;11.00;99.90;;;12.43;66.96;100857.56;5018819;28;20375;-85
2021/04/01 04:57:39;;;;;;;25.92;12.20;;;11.00;99.90;;;12.34;67.75;100859.75;5019403;28;20025;-85
2021/04/01 05:05:36;;;;;;;24.08;12.30;;;10.80;99.90;;;12.10;69.57;100865.59;5038333;28;20052;-86
2021/04/01 05:08:02;;;;;;;32.67;14.82;;;10.70;99.90;;;12.12;68.63;100880.03;5018381;28;20025;-86
2021/04/01 05:10:28;;;;;;;27.90;14.63;;;10.70;99.90;;;12.21;67.42;100882.63;5000429;28;20420;-87
2021/04/01 05:13:10;;;;;;;23.83;14.02;;;10.80;99.90;;;12.29;67.02;100874.06;5018873;28;20029;-86
2021/04/01 05:15:49;;;;;;;31.60;13.85;;;10.80;99.90;;;12.28;67.24;100882.81;5001673;28;20128;-87
2021/04/01 05:18:26;;;;;;;24.38;13.27;;;10.80;99.90;;;12.26;67.64;100891.59;5003311;28;20029;-89
2021/04/01 05:20:57;;;;;;;21.08;11.15;;;10.80;99.90;;;12.21;67.62;100880.66;5001186;28;20030;-86
2021/04/01 05:23:42;;;;;;;25.65;13.35;;;10.80;99.90;;;12.17;68.41;100878.97;5000929;28;20152;-87
2021/04/01 05:29:03;;;;;;;25.35;13.38;;;10.80;99.90;;;12.24;67.84;100899.53;5017316;28;20022;-85
2021/04/01 05:31:32;;;;;;;19.95;11.85;;;10.80;99.90;;;12.24;68.01;100898.72;5000290;28;20021;-86
2021/04/01 05:33:58;;;;;;;22.63;12.68;;;10.80;99.90;;;12.21;68.51;100896.63;5018826;28;20057;-87
2021/04/01 05:36:29;;;;;;;18.77;11.32;;;10.80;99.90;;;12.19;68.83;100907.41;5017599;28;20117;-83
2021/04/01 05:38:58;;;;;;;22.20;12.55;;;10.80;99.90;;;12.19;68.21;100910.19;4999964;28;20029;-85
2021/04/01 05:41:28;;;;;;;20.35;12.07;;;10.70;99.90;;;12.19;68.02;100921.41;5017975;28;20045;-88
2021/04/01 05:46:31;;;;;;;26.55;13.30;;;10.70;99.90;;;12.14;69.30;100903.69;5018197;28;20033;-84
2021/04/01 06:04:20;;;;;;;36.03;19.13;;;11.50;99.90;;;13.13;65.40;100908.78;5017965;28;20040;-85
2021/04/01 06:06:58;;;;;;;38.30;16.90;;;11.70;99.90;;;13.30;64.54;100909.50;4972821;28;20114;-86
2021/04/01 06:09:27;;;;;;;36.90;17.70;;;11.80;99.90;;;13.43;64.54;100906.19;5036521;28;20034;-84
2021/04/01 06:11:57;;;;;;;40.17;18.60;;;11.90;99.90;;;13.48;64.28;100910.69;5040149;28;20026;-83
2021/04/01 06:15:11;;;;;;;38.08;18.63;;;12.00;99.90;;;13.56;64.21;100904.00;5024664;28;20051;-86
2021/04/01 06:17:47;;;;;;;37.55;19.15;;;12.10;99.90;;;13.61;64.21;100912.16;5036819;28;20044;-85
2021/04/01 06:20:15;;;;;;;;;;;12.20;99.90;;;13.66;63.36;100906.22;5019819;28;20036;-85
2021/04/01 06:22:43;;;;;;;42.97;19.10;;;12.20;99.90;;;13.95;62.77;100905.53;5034428;28;19993;-83
2021/04/01 06:25:15;;;;;;;39.33;20.13;;;12.40;99.90;;;14.07;62.76;100913.78;5019352;28;20029;-83
2021/04/01 06:27:51;;;;;;;36.50;20.27;;;12.50;99.90;;;14.18;62.19;100911.16;5021276;28;20026;-85
2021/04/01 06:30:29;;;;;;;38.88;19.67;;;12.50;99.90;;;14.16;62.41;100908.69;5034417;28;20029;-84
2021/04/01 06:33:16;;;;;;;47.35;22.83;;;12.60;99.90;;;14.21;62.06;100914.03;5019266;28;20037;-84
2021/04/01 06:36:01;;;;;;;44.67;21.83;;;12.60;99.90;;;14.55;61.44;100917.78;5036423;28;20025;-85
2021/04/01 06:38:36;;;;;;;50.05;24.05;;;12.80;99.90;;;14.87;60.58;100907.00;5018978;28;20033;-84
2021/04/01 06:41:10;;;;;;;47.22;24.90;;;13.00;99.90;;;15.11;59.82;100916.97;5017882;28;20030;-84
2021/04/01 06:44:11;;;;;;;52.08;26.25;;;13.30;99.90;;;15.46;58.60;100919.41;5037235;28;20059;-84
2021/04/01 06:46:47;;;;;;;53.65;26.02;;;13.60;99.90;;;15.94;57.20;100914.69;5037686;28;20060;-85
2021/04/01 06:52:14;;;;;;;57.13;28.80;;;14.40;99.90;;;16.68;54.27;100935.06;5040060;28;20097;-86
2021/04/01 06:55:02;;;;;;;68.07;32.05;;;14.70;99.90;;;16.84;52.69;100941.22;5028810;28;20026;-85
2021/04/01 07:00:42;;;;;;;64.07;31.33;;;15.20;99.90;;;17.05;53.15;100929.25;5019427;28;20030;-84
2021/04/01 07:03:19;;;;;;;59.97;30.15;;;15.30;99.90;;;17.37;52.43;100933.81;5000785;28;20030;-84
2021/04/01 07:05:56;;;;;;;63.25;31.67;;;15.50;99.90;;;17.57;50.48;100937.16;5000100;28;20026;-84
2021/04/01 07:14:09;;;;;;;67.43;32.95;;;15.90;99.90;;;17.75;49.17;100945.69;5029791;28;20021;-84
2021/04/01 07:45:34;;;;;;;62.70;31.05;;;17.70;94.10;;;20.09;45.78;100946.84;5019162;28;20137;-86
2021/04/01 07:48:03;;;;;;;61.83;31.92;;;18.00;93.70;;;20.52;44.43;100936.78;5018177;28;20053;-85
2021/04/01 07:50:41;;;;;;;63.13;32.50;;;18.40;91.60;;;20.74;42.88;100937.38;5017960;28;20056;-85
2021/04/01 07:53:12;;;;;;;75.55;36.05;;;18.60;87.80;;;20.69;42.45;100942.72;5017430;28;20491;-84
2021/04/01 08:03:55;;;;;;;82.20;38.65;;;19.40;77.30;;;21.62;38.57;100946.13;5020107;28;20026;-84
2021/04/01 08:06:20;;;;;;;89.88;40.67;;;19.50;71.50;;;21.54;38.39;100945.44;5003600;28;20026;-86
2021/04/01 08:08:51;;;;;;;75.28;37.95;;;19.60;69.60;;;21.66;38.79;100953.38;5013161;28;20478;-86
2021/04/01 08:11:49;;;;;;;78.30;39.65;;;19.60;69.90;;;21.80;38.14;100944.66;5020853;28;20453;-87
2021/04/01 08:14:35;;;;;;;84.50;40.47;;;19.70;68.50;;;21.78;36.94;100944.28;5020065;28;20501;-85
2021/04/01 08:17:17;;;;;;;81.45;39.70;;;19.80;65.30;;;21.74;37.34;100963.41;5019615;28;20030;-87
2021/04/01 08:19:50;;;;;;;85.10;39.90;;;19.80;65.30;;;21.91;37.38;100958.75;5037376;28;20108;-87
2021/04/01 08:22:21;;;;;;;87.43;41.60;;;19.90;65.00;;;22.30;36.71;100961.81;5037807;28;20081;-87
2021/04/01 08:24:59;;;;;;;81.75;38.45;;;20.20;64.10;;;22.26;36.61;100960.25;5021087;28;20056;-85
2021/04/01 08:27:50;;;;;;;84.03;39.78;;;20.30;62.90;;;22.55;36.17;100965.06;5021400;28;20029;-86
2021/04/01 08:30:59;;;;;;;82.30;40.85;;;20.40;62.40;;;22.76;35.86;100957.41;5038283;28;20495;-85
2021/04/01 08:33:53;;;;;;;80.38;39.15;;;20.60;61.70;;;22.76;34.49;100963.91;5037345;28;20503;-89
2021/04/01 08:36:11;;;;;;;85.22;39.20;;;20.80;59.20;;;22.78;34.06;100964.28;5052658;28;20030;-81
2021/04/01 08:38:41;;;;;;;75.72;36.92;;;20.80;57.70;;;23.29;34.77;100962.09;5030840;28;20042;-87
2021/04/01 08:41:52;;;;;;;77.90;37.25;;;21.00;59.40;;;23.71;33.31;100961.22;5036510;28;20093;-87
2021/04/01 08:45:33;;;;;;;83.95;38.70;;;21.40;59.00;;;23.73;32.90;100955.09;5016599;28;20104;-87
2021/04/01 08:48:35;;;;;;;78.93;37.80;;;21.60;56.60;;;23.29;33.42;100962.91;5020370;28;20029;-86
2021/04/01 08:51:42;;;;;;;87.13;41.33;;;21.40;55.70;;;22.79;34.04;100959.41;5038025;28;20025;-87
2021/04/01 08:54:15;;;;;;;81.90;38.03;;;21.20;55.80;;;22.81;33.95;100962.59;5021880;28;20025;-84
2021/04/01 08:57:07;;;;;;;82.95;38.67;;;21.00;56.20;;;22.82;33.35;100962.19;5038774;28;20042;-85
2021/04/01 08:59:55;;;;;;;79.63;36.10;;;21.00;55.80;;;22.77;33.67;100959.00;5018968;28;20022;-87
2021/04/01 09:02:23;;;;;;;87.82;39.65;;;20.90;55.50;;;22.69;33.80;100958.34;5019249;28;20453;-85
2021/04/01 09:04:54;;;;;;;84.35;40.65;;;20.90;55.50;;;22.95;33.82;100962.34;5018624;28;20021;-86
2021/04/01 09:07:40;;;;;;;86.50;39.67;;;21.00;56.00;;;23.16;33.42;100959.09;5017238;28;20029;-87
2021/04/01 09:10:28;;;;;;;80.00;37.65;;;21.20;55.40;;;23.58;33.30;100952.53;4999480;28;20056;-86
2021/04/01 09:13:02;;;;;;;83.63;36.88;;;21.50;55.60;;;23.77;31.80;100941.53;5000642;28;20030;-88
2021/04/01 09:15:48;;;;;;;79.18;37.25;;;21.70;53.20;;;23.59;31.83;100951.31;5018758;28;20041;-86
2021/04/01 09:18:24;;;;;;;78.57;36.70;;;21.70;52.60;;;23.65;31.97;100943.03;5018785;28;20137;-88
2021/04/01 09:20:56;;;;;;;79.57;36.72;;;21.80;53.10;;;23.97;32.76;100948.81;5000259;28;20389;-86
2021/04/01 09:23:41;;;;;;;79.65;38.33;;;22.00;54.60;;;24.24;33.52;100939.25;5000674;28;20132;-86
2021/04/01 09:26:12;;;;;;;74.10;35.42;;;22.20;54.90;;;24.80;31.47;100940.66;5000573;28;20030;-86
2021/04/01 09:28:43;;;;;;;83.65;38.10;;;22.50;53.30;;;24.89;30.91;100932.28;4999709;28;20048;-86
2021/04/01 09:31:14;;;;;;;76.90;38.08;;;22.70;51.60;;;24.83;30.80;100942.66;5016961;28;20026;-85
2021/04/01 09:33:42;;;;;;;80.07;36.35;;;22.70;51.00;;;24.82;30.21;100934.53;4999172;28;20029;-87
2021/04/01 09:36:22;;;;;;;78.18;36.78;;;22.80;50.80;;;24.75;31.01;100935.50;4998900;28;20036;-88
2021/04/01 09:39:04;;;;;;;78.97;39.50;;;22.70;51.60;;;24.44;30.85;100939.97;4999450;28;20085;-86
2021/04/01 09:41:35;;;;;;;75.22;35.78;;;22.60;50.60;;;23.98;31.55;100927.63;4999062;28;20072;-84
2021/04/01 09:44:09;;;;;;;75.40;36.70;;;22.20;51.30;;;24.02;33.34;100933.22;4998537;28;20030;-85
2021/04/01 09:47:07;;;;;;;76.85;37.28;;;22.20;53.80;;;24.52;32.86;100935.69;5015918;28;20034;-85
2021/04/01 09:50:08;;;;;;;85.65;38.47;;;22.50;53.30;;;24.26;32.14;100934.72;5002282;28;20034;-87
2021/04/01 09:52:35;;;;;;;82.20;38.92;;;22.50;51.70;;;25.02;30.94;100936.00;4999617;28;20045;-87
2021/04/01 09:55:12;;;;;;;80.80;38.53;;;22.90;51.30;;;25.27;30.58;100929.56;5003074;28;20128;-87
2021/04/01 09:57:47;;;;;;;85.28;38.97;;;23.00;50.80;;;25.07;29.88;100938.31;5018799;28;20072;-86
2021/04/01 10:03:43;;;;;;;77.10;37.63;;;23.00;51.80;;;25.16;30.09;100935.59;5021255;28;20030;-86
2021/04/01 10:06:09;;;;;;;74.30;35.88;;;23.10;49.60;;;24.80;29.93;100937.78;5003509;28;20037;-86
2021/04/01 10:08:36;;;;;;;72.72;34.58;;;22.90;49.10;;;24.78;30.13;100943.16;5021655;28;20037;-86
2021/04/01 10:11:28;;;;;;;71.50;35.30;;;22.80;49.30;;;25.12;30.85;100937.75;5031512;28;20029;-86
2021/04/01 10:14:08;;;;;;;72.45;33.60;;;23.00;51.30;;;24.94;29.44;100933.78;5037941;28;20034;-86
2021/04/01 10:16:36;;;;;;;67.93;32.17;;;23.10;48.80;;;24.96;30.13;100937.78;5030125;28;20030;-85
2021/04/01 10:19:06;;;;;;;75.00;33.40;;;23.00;49.10;;;24.73;30.52;100931.47;5036480;28;20032;-83
2021/04/01 10:21:45;;;;;;;64.65;30.00;;;22.90;49.30;;;24.63;30.16;100936.19;5033563;28;20025;-87
2021/04/01 10:24:25;;;;;;;67.75;32.90;;;22.80;48.90;;;24.71;30.25;100933.97;5032764;28;20485;-86
2021/04/01 10:27:13;;;;;;;67.55;31.88;;;22.80;49.50;;;24.65;30.43;100931.69;5035102;28;20105;-87
2021/04/01 10:32:15;;;;;;;72.38;32.85;;;22.80;49.60;;;24.81;30.70;100932.88;5038039;28;20179;-84
2021/04/01 10:34:58;;;;;;;73.03;33.63;;;22.90;49.90;;;24.78;30.08;100928.06;5038552;28;20052;-84
2021/04/01 10:37:25;;;;;;;71.88;33.75;;;22.80;49.10;;;24.46;31.03;100932.59;5020282;28;20124;-86
2021/04/01 10:39:53;;;;;;;71.78;34.65;;;22.70;49.80;;;24.66;30.55;100935.31;5020406;28;20057;-85
2021/04/01 10:42:32;;;;;;;75.50;35.20;;;22.70;49.60;;;24.61;31.06;100935.84;5021196;28;20053;-85
2021/04/01 10:45:06;;;;;;;73.30;34.30;;;22.70;50.10;;;24.64;30.72;100934.97;5023164;28;20036;-85
2021/04/01 10:48:15;;;;;;;76.45;35.47;;;22.80;49.90;;;25.06;30.29;100927.31;5054186;28;20025;-85
2021/04/01 10:50:43;;;;;;;76.35;34.00;;;23.00;49.60;;;25.16;30.44;100934.78;5024866;28;20051;-85
2021/04/01 10:53:24;;;;;;;69.13;33.17;;;23.30;48.90;;;25.31;29.86;100936.00;5047945;28;20179;-85
2021/04/01 10:56:00;;;;;;;63.03;31.98;;;23.50;49.20;;;25.40;30.44;100933.25;5035791;28;20064;-86
2021/04/01 10:58:25;;;;;;;76.63;35.40;;;23.60;49.30;;;25.59;29.90;100935.16;5038478;28;20034;-84
2021/04/01 11:00:55;;;;;;;69.97;34.75;;;23.70;48.50;;;25.54;30.10;100941.47;5050520;28;20107;-84
2021/04/01 11:03:30;;;;;;;67.55;33.08;;;23.70;48.60;;;25.47;30.35;100935.13;5045520;28;20036;-86
2021/04/01 11:06:00;;;;;;;73.22;33.58;;;23.70;48.80;;;25.39;30.36;100936.59;5020706;28;20033;-87
2021/04/01 11:08:40;;;;;;;72.10;34.28;;;23.60;48.80;;;25.22;31.16;100933.00;5009940;28;20034;-85
2021/04/01 11:11:09;;;;;;;77.90;36.72;;;23.50;49.60;;;25.29;30.60;100932.78;5002030;28;20119;-85
2021/04/01 11:13:45;;;;;;;79.97;36.42;;;23.50;49.20;;;25.45;30.74;100932.72;5001817;28;20030;-86
2021/04/01 11:16:15;;;;;;;;;;;23.60;49.30;;;25.40;30.71;100924.69;5001801;28;20030;-85
2021/04/01 11:18:51;;;;;;;71.30;34.17;;;23.50;49.40;;;25.77;30.64;100931.78;5004055;28;19964;-84
2021/04/01 11:21:20;;;;;;;;;;;23.70;49.70;;;25.60;30.79;100925.34;5008120;28;20064;-84
2021/04/01 11:23:47;;;;;;;73.63;34.28;;;23.80;49.40;;;24.89;32.08;100931.47;5026988;28;19925;-86
2021/04/01 11:26:13;;;;;;;78.50;36.35;;;23.50;50.40;;;24.85;32.17;100936.50;5001475;28;20116;-84
2021/04/01 11:28:44;;;;;;;80.38;36.03;;;23.20;50.60;;;24.41;33.08;100938.00;5016978;28;20034;-84
2021/04/01 11:31:50;;;;;;;74.13;36.08;;;22.90;51.80;;;24.75;32.54;100940.41;4999991;28;20121;-82
2021/04/01 11:34:18;;;;;;;67.93;35.45;;;22.90;51.60;;;24.39;33.03;100947.03;4997821;28;20038;-85
2021/04/01 11:36:49;;;;;;;73.18;36.03;;;22.80;52.20;;;24.41;33.68;100944.53;5000244;28;20026;-85
2021/04/01 11:39:36;;;;;;;71.40;36.55;;;22.70;53.00;;;24.42;33.04;100948.19;5000118;28;20025;-86
2021/04/01 11:42:03;;;;;;;73.35;35.67;;;22.60;52.50;;;24.12;34.20;100947.28;4999803;28;20469;-86
2021/04/01 11:44:29;;;;;;;73.75;37.13;;;22.50;53.50;;;24.32;34.11;100932.94;4999450;28;20071;-86
2021/04/01 11:46:55;;;;;;;68.68;34.95;;;22.60;53.70;;;24.01;34.64;100940.19;5016737;28;20030;-86
2021/04/01 11:49:21;;;;;;;66.93;35.30;;;22.40;53.90;;;24.05;35.01;100946.59;4999024;28;20075;-86
2021/04/01 11:51:47;;;;;;;64.95;34.78;;;22.40;54.50;;;24.29;34.16;100944.44;4998225;28;20045;-83
2021/04/01 11:54:23;;;;;;;67.95;35.58;;;22.50;54.10;;;23.76;35.10;100942.81;5015948;28;20038;-87
2021/04/01 11:56:49;;;;;;;64.25;34.13;;;22.30;54.20;;;23.38;35.08;100948.06;4998169;28;20203;-83
2021/04/01 11:59:27;;;;;;;63.33;34.88;;;22.00;54.40;;;23.21;35.72;100946.38;4997541;28;20056;-87